sensor_id;sensor_type;location;lat;lon;timestamp;P1;durP1;ratioP1;P2;durP2;ratioP2
6019;SDS011;3038;51.122;6.840;2023-07-13T00:01:14;5.20;;;2.30;;
6019;SDS011;3038;51.122;6.840;2023-07-13T00:03:41;3.57;;;1.97;;
6019;SDS011;3038;51.122;6.840;2023-07-13T00:06:08;4.37;;;1.90;;
6019;SDS011;3038;51.122;6.840;2023-07-13T00:08:34;3.17;;;2.03;;
6019;SDS011;3038;51.122;6.840;2023-07-13T00:11:03;3.57;;;1.90;;
6019;SDS011;3038;51.122;6.840;2023-07-13T00:13:29;2.73;;;1.90;;
6019;SDS011;3038;51.122;6.840;2023-07-13T00:15:56;3.50;;;2.10;;
6019;SDS011;3038;51.122;6.840;2023-07-13T00:18:22;4.93;;;2.10;;
6019;SDS011;3038;51.122;6.840;2023-07-13T00:20:47;4.10;;;2.60;;
6019;SDS011;3038;51.122;6.840;2023-07-13T00:23:14;5.50;;;2.00;;
6019;SDS011;3038;51.122;6.840;2023-07-13T00:25:39;2.10;;;1.87;;
6019;SDS011;3038;51.122;6.840;2023-07-13T00:28:05;4.07;;;2.00;;
6019;SDS011;3038;51.122;6.840;2023-07-13T00:30:30;6.10;;;2.20;;
6019;SDS011;3038;51.122;6.840;2023-07-13T00:32:56;5.97;;;2.00;;
6019;SDS011;3038;51.122;6.840;2023-07-13T00:35:22;4.93;;;2.27;;
6019;SDS011;3038;51.122;6.840;2023-07-13T00:37:48;4.80;;;2.20;;
6019;SDS011;3038;51.122;6.840;2023-07-13T00:40:17;2.97;;;1.80;;
6019;SDS011;3038;51.122;6.840;2023-07-13T00:42:43;6.93;;;2.03;;
6019;SDS011;3038;51.122;6.840;2023-07-13T00:47:36;6.33;;;2.43;;
6019;SDS011;3038;51.122;6.840;2023-07-13T00:50:02;5.10;;;2.30;;
6019;SDS011;3038;51.122;6.840;2023-07-13T00:52:31;5.77;;;1.90;;
6019;SDS011;3038;51.122;6.840;2023-07-13T00:54:57;5.07;;;1.63;;
6019;SDS011;3038;51.122;6.840;2023-07-13T00:57:23;5.27;;;1.87;;
6019;SDS011;3038;51.122;6.840;2023-07-13T00:59:55;3.20;;;2.13;;
6019;SDS011;3038;51.122;6.840;2023-07-13T01:02:24;3.17;;;2.40;;
6019;SDS011;3038;51.122;6.840;2023-07-13T01:04:50;3.90;;;1.90;;
6019;SDS011;3038;51.122;6.840;2023-07-13T01:07:16;4.60;;;1.70;;
6019;SDS011;3038;51.122;6.840;2023-07-13T01:09:44;4.23;;;2.70;;
6019;SDS011;3038;51.122;6.840;2023-07-13T01:12:10;11.53;;;2.50;;
6019;SDS011;3038;51.122;6.840;2023-07-13T01:14:36;5.70;;;2.37;;
6019;SDS011;3038;51.122;6.840;2023-07-13T01:17:01;3.40;;;1.90;;
6019;SDS011;3038;51.122;6.840;2023-07-13T01:22:11;4.90;;;1.97;;
6019;SDS011;3038;51.122;6.840;2023-07-13T01:24:39;4.03;;;2.70;;
6019;SDS011;3038;51.122;6.840;2023-07-13T01:27:07;5.53;;;2.30;;
6019;SDS011;3038;51.122;6.840;2023-07-13T01:29:33;4.40;;;1.70;;
6019;SDS011;3038;51.122;6.840;2023-07-13T01:32:08;4.00;;;2.00;;
6019;SDS011;3038;51.122;6.840;2023-07-13T01:34:35;4.53;;;2.10;;
6019;SDS011;3038;51.122;6.840;2023-07-13T01:37:01;6.30;;;2.10;;
6019;SDS011;3038;51.122;6.840;2023-07-13T01:39:26;3.43;;;1.90;;
6019;SDS011;3038;51.122;6.840;2023-07-13T01:41:51;2.57;;;1.90;;
6019;SDS011;3038;51.122;6.840;2023-07-13T01:44:18;4.53;;;2.33;;
6019;SDS011;3038;51.122;6.840;2023-07-13T01:46:43;3.97;;;2.43;;
6019;SDS011;3038;51.122;6.840;2023-07-13T01:49:08;6.07;;;1.97;;
6019;SDS011;3038;51.122;6.840;2023-07-13T01:51:34;5.67;;;3.00;;
6019;SDS011;3038;51.122;6.840;2023-07-13T01:53:59;2.57;;;1.90;;
6019;SDS011;3038;51.122;6.840;2023-07-13T01:56:24;6.90;;;2.20;;
6019;SDS011;3038;51.122;6.840;2023-07-13T01:58:50;6.20;;;2.47;;
6019;SDS011;3038;51.122;6.840;2023-07-13T02:01:17;3.47;;;2.13;;
6019;SDS011;3038;51.122;6.840;2023-07-13T02:03:42;6.37;;;2.30;;
6019;SDS011;3038;51.122;6.840;2023-07-13T02:06:07;4.93;;;2.43;;
6019;SDS011;3038;51.122;6.840;2023-07-13T02:08:33;7.70;;;2.17;;
6019;SDS011;3038;51.122;6.840;2023-07-13T02:10:59;2.30;;;1.70;;
6019;SDS011;3038;51.122;6.840;2023-07-13T02:13:24;4.17;;;1.90;;
6019;SDS011;3038;51.122;6.840;2023-07-13T02:15:50;5.10;;;2.13;;
6019;SDS011;3038;51.122;6.840;2023-07-13T02:18:16;5.20;;;2.27;;
6019;SDS011;3038;51.122;6.840;2023-07-13T02:20:42;5.70;;;2.70;;
6019;SDS011;3038;51.122;6.840;2023-07-13T02:23:08;3.70;;;2.40;;
6019;SDS011;3038;51.122;6.840;2023-07-13T02:25:33;7.07;;;2.13;;
6019;SDS011;3038;51.122;6.840;2023-07-13T02:27:58;7.80;;;2.30;;
6019;SDS011;3038;51.122;6.840;2023-07-13T02:30:24;4.00;;;2.30;;
6019;SDS011;3038;51.122;6.840;2023-07-13T02:32:49;6.10;;;2.60;;
6019;SDS011;3038;51.122;6.840;2023-07-13T02:35:15;10.00;;;2.73;;
6019;SDS011;3038;51.122;6.840;2023-07-13T02:37:40;7.20;;;2.67;;
6019;SDS011;3038;51.122;6.840;2023-07-13T02:40:06;6.10;;;2.63;;
6019;SDS011;3038;51.122;6.840;2023-07-13T02:42:33;4.23;;;1.97;;
6019;SDS011;3038;51.122;6.840;2023-07-13T02:44:59;4.83;;;2.13;;
6019;SDS011;3038;51.122;6.840;2023-07-13T02:47:25;3.37;;;2.50;;
6019;SDS011;3038;51.122;6.840;2023-07-13T02:49:51;4.03;;;2.00;;
6019;SDS011;3038;51.122;6.840;2023-07-13T02:52:17;3.53;;;1.93;;
6019;SDS011;3038;51.122;6.840;2023-07-13T02:54:42;3.73;;;1.73;;
6019;SDS011;3038;51.122;6.840;2023-07-13T02:57:07;4.90;;;2.13;;
6019;SDS011;3038;51.122;6.840;2023-07-13T02:59:33;3.33;;;1.77;;
6019;SDS011;3038;51.122;6.840;2023-07-13T03:01:58;4.87;;;2.20;;
6019;SDS011;3038;51.122;6.840;2023-07-13T03:04:23;4.80;;;2.10;;
6019;SDS011;3038;51.122;6.840;2023-07-13T03:06:50;3.43;;;2.17;;
6019;SDS011;3038;51.122;6.840;2023-07-13T03:09:16;8.03;;;2.57;;
6019;SDS011;3038;51.122;6.840;2023-07-13T03:11:41;6.40;;;2.30;;
6019;SDS011;3038;51.122;6.840;2023-07-13T03:14:07;6.87;;;2.07;;
6019;SDS011;3038;51.122;6.840;2023-07-13T03:16:33;10.23;;;2.00;;
6019;SDS011;3038;51.122;6.840;2023-07-13T03:18:58;7.67;;;2.50;;
6019;SDS011;3038;51.122;6.840;2023-07-13T03:21:23;7.40;;;2.70;;
6019;SDS011;3038;51.122;6.840;2023-07-13T03:23:49;8.33;;;3.10;;
6019;SDS011;3038;51.122;6.840;2023-07-13T03:26:15;4.00;;;2.27;;
6019;SDS011;3038;51.122;6.840;2023-07-13T03:28:43;5.20;;;1.93;;
6019;SDS011;3038;51.122;6.840;2023-07-13T03:31:10;5.10;;;1.97;;
6019;SDS011;3038;51.122;6.840;2023-07-13T03:33:38;6.17;;;2.77;;
6019;SDS011;3038;51.122;6.840;2023-07-13T03:36:04;5.77;;;3.53;;
6019;SDS011;3038;51.122;6.840;2023-07-13T03:38:31;4.83;;;2.27;;
6019;SDS011;3038;51.122;6.840;2023-07-13T03:40:57;6.00;;;2.60;;
6019;SDS011;3038;51.122;6.840;2023-07-13T03:43:22;4.17;;;2.70;;
6019;SDS011;3038;51.122;6.840;2023-07-13T03:45:47;4.97;;;2.20;;
6019;SDS011;3038;51.122;6.840;2023-07-13T03:48:13;4.40;;;2.40;;
6019;SDS011;3038;51.122;6.840;2023-07-13T03:50:39;8.90;;;2.97;;
6019;SDS011;3038;51.122;6.840;2023-07-13T03:53:04;6.37;;;2.70;;
6019;SDS011;3038;51.122;6.840;2023-07-13T03:55:31;6.17;;;1.97;;
6019;SDS011;3038;51.122;6.840;2023-07-13T03:58:01;2.77;;;1.90;;
6019;SDS011;3038;51.122;6.840;2023-07-13T04:00:49;3.83;;;2.10;;
6019;SDS011;3038;51.122;6.840;2023-07-13T04:03:15;4.23;;;2.10;;
6019;SDS011;3038;51.122;6.840;2023-07-13T04:05:41;3.47;;;2.53;;
6019;SDS011;3038;51.122;6.840;2023-07-13T04:08:06;5.87;;;2.40;;
6019;SDS011;3038;51.122;6.840;2023-07-13T04:10:32;3.80;;;2.20;;
6019;SDS011;3038;51.122;6.840;2023-07-13T04:12:57;9.20;;;2.50;;
6019;SDS011;3038;51.122;6.840;2023-07-13T04:15:22;4.20;;;2.43;;
6019;SDS011;3038;51.122;6.840;2023-07-13T04:17:48;3.07;;;2.17;;
6019;SDS011;3038;51.122;6.840;2023-07-13T04:20:13;7.93;;;2.60;;
6019;SDS011;3038;51.122;6.840;2023-07-13T04:22:39;10.23;;;2.43;;
6019;SDS011;3038;51.122;6.840;2023-07-13T04:25:04;4.97;;;2.20;;
6019;SDS011;3038;51.122;6.840;2023-07-13T04:27:30;4.83;;;2.63;;
6019;SDS011;3038;51.122;6.840;2023-07-13T04:29:56;3.27;;;2.37;;
6019;SDS011;3038;51.122;6.840;2023-07-13T04:32:21;5.23;;;2.20;;
6019;SDS011;3038;51.122;6.840;2023-07-13T04:34:46;3.70;;;2.07;;
6019;SDS011;3038;51.122;6.840;2023-07-13T04:37:12;7.37;;;2.60;;
6019;SDS011;3038;51.122;6.840;2023-07-13T04:39:37;4.60;;;2.13;;
6019;SDS011;3038;51.122;6.840;2023-07-13T04:42:03;5.50;;;2.90;;
6019;SDS011;3038;51.122;6.840;2023-07-13T04:44:29;4.93;;;2.80;;
6019;SDS011;3038;51.122;6.840;2023-07-13T04:46:54;4.53;;;4.13;;
6019;SDS011;3038;51.122;6.840;2023-07-13T04:49:19;5.07;;;2.50;;
6019;SDS011;3038;51.122;6.840;2023-07-13T04:51:45;4.10;;;2.53;;
6019;SDS011;3038;51.122;6.840;2023-07-13T04:54:10;9.63;;;3.70;;
6019;SDS011;3038;51.122;6.840;2023-07-13T04:56:36;4.83;;;2.40;;
6019;SDS011;3038;51.122;6.840;2023-07-13T04:59:01;4.90;;;2.40;;
6019;SDS011;3038;51.122;6.840;2023-07-13T05:01:28;9.23;;;2.70;;
6019;SDS011;3038;51.122;6.840;2023-07-13T05:03:53;9.87;;;2.70;;
6019;SDS011;3038;51.122;6.840;2023-07-13T05:06:20;4.00;;;1.80;;
6019;SDS011;3038;51.122;6.840;2023-07-13T05:08:46;6.23;;;2.47;;
6019;SDS011;3038;51.122;6.840;2023-07-13T05:11:11;7.87;;;2.50;;
6019;SDS011;3038;51.122;6.840;2023-07-13T05:13:36;4.73;;;2.70;;
6019;SDS011;3038;51.122;6.840;2023-07-13T05:16:02;6.67;;;2.60;;
6019;SDS011;3038;51.122;6.840;2023-07-13T05:18:29;5.60;;;3.00;;
6019;SDS011;3038;51.122;6.840;2023-07-13T05:20:57;7.37;;;3.00;;
6019;SDS011;3038;51.122;6.840;2023-07-13T05:23:23;7.00;;;2.30;;
6019;SDS011;3038;51.122;6.840;2023-07-13T05:25:48;4.73;;;2.30;;
6019;SDS011;3038;51.122;6.840;2023-07-13T05:28:14;4.70;;;2.60;;
6019;SDS011;3038;51.122;6.840;2023-07-13T05:30:39;4.50;;;2.60;;
6019;SDS011;3038;51.122;6.840;2023-07-13T05:33:04;6.50;;;2.70;;
6019;SDS011;3038;51.122;6.840;2023-07-13T05:35:30;6.97;;;2.60;;
6019;SDS011;3038;51.122;6.840;2023-07-13T05:37:55;6.30;;;2.30;;
6019;SDS011;3038;51.122;6.840;2023-07-13T05:40:21;6.50;;;2.93;;
6019;SDS011;3038;51.122;6.840;2023-07-13T05:42:47;4.47;;;2.73;;
6019;SDS011;3038;51.122;6.840;2023-07-13T05:45:12;6.93;;;2.50;;
6019;SDS011;3038;51.122;6.840;2023-07-13T05:47:38;3.63;;;2.27;;
6019;SDS011;3038;51.122;6.840;2023-07-13T05:50:03;6.37;;;2.70;;
6019;SDS011;3038;51.122;6.840;2023-07-13T05:52:29;5.17;;;3.00;;
6019;SDS011;3038;51.122;6.840;2023-07-13T05:54:56;7.40;;;3.10;;
6019;SDS011;3038;51.122;6.840;2023-07-13T05:57:21;3.50;;;2.37;;
6019;SDS011;3038;51.122;6.840;2023-07-13T05:59:47;7.40;;;2.77;;
6019;SDS011;3038;51.122;6.840;2023-07-13T06:02:12;6.57;;;2.83;;
6019;SDS011;3038;51.122;6.840;2023-07-13T06:04:38;5.93;;;2.20;;
6019;SDS011;3038;51.122;6.840;2023-07-13T06:07:04;4.80;;;2.50;;
6019;SDS011;3038;51.122;6.840;2023-07-13T06:09:29;4.00;;;2.90;;
6019;SDS011;3038;51.122;6.840;2023-07-13T06:11:55;9.23;;;3.00;;
6019;SDS011;3038;51.122;6.840;2023-07-13T06:14:20;6.90;;;2.80;;
6019;SDS011;3038;51.122;6.840;2023-07-13T06:16:45;3.60;;;2.50;;
6019;SDS011;3038;51.122;6.840;2023-07-13T06:19:11;9.67;;;3.10;;
6019;SDS011;3038;51.122;6.840;2023-07-13T06:21:36;5.87;;;2.70;;
6019;SDS011;3038;51.122;6.840;2023-07-13T06:24:02;4.60;;;2.70;;
6019;SDS011;3038;51.122;6.840;2023-07-13T06:26:27;7.83;;;3.50;;
6019;SDS011;3038;51.122;6.840;2023-07-13T06:28:53;6.97;;;3.47;;
6019;SDS011;3038;51.122;6.840;2023-07-13T06:31:18;8.20;;;3.07;;
6019;SDS011;3038;51.122;6.840;2023-07-13T06:33:44;9.87;;;3.20;;
6019;SDS011;3038;51.122;6.840;2023-07-13T06:36:09;14.63;;;3.80;;
6019;SDS011;3038;51.122;6.840;2023-07-13T06:38:35;8.77;;;4.47;;
6019;SDS011;3038;51.122;6.840;2023-07-13T06:41:02;7.13;;;4.07;;
6019;SDS011;3038;51.122;6.840;2023-07-13T06:43:28;7.47;;;3.70;;
6019;SDS011;3038;51.122;6.840;2023-07-13T06:45:55;4.13;;;3.60;;
6019;SDS011;3038;51.122;6.840;2023-07-13T06:48:20;6.87;;;3.70;;
6019;SDS011;3038;51.122;6.840;2023-07-13T06:50:48;6.70;;;3.40;;
6019;SDS011;3038;51.122;6.840;2023-07-13T06:53:15;6.20;;;3.30;;
6019;SDS011;3038;51.122;6.840;2023-07-13T06:55:40;14.60;;;4.00;;
6019;SDS011;3038;51.122;6.840;2023-07-13T06:58:06;12.13;;;4.10;;
6019;SDS011;3038;51.122;6.840;2023-07-13T07:00:31;5.33;;;3.67;;
6019;SDS011;3038;51.122;6.840;2023-07-13T07:02:57;10.13;;;3.63;;
6019;SDS011;3038;51.122;6.840;2023-07-13T07:05:22;7.57;;;4.13;;
6019;SDS011;3038;51.122;6.840;2023-07-13T07:07:49;3.77;;;3.37;;
6019;SDS011;3038;51.122;6.840;2023-07-13T07:10:16;10.47;;;4.43;;
6019;SDS011;3038;51.122;6.840;2023-07-13T07:12:41;7.80;;;3.80;;
6019;SDS011;3038;51.122;6.840;2023-07-13T07:15:07;9.73;;;3.87;;
6019;SDS011;3038;51.122;6.840;2023-07-13T07:17:32;9.00;;;4.00;;
6019;SDS011;3038;51.122;6.840;2023-07-13T07:19:57;7.70;;;3.40;;
6019;SDS011;3038;51.122;6.840;2023-07-13T07:22:24;9.57;;;4.10;;
6019;SDS011;3038;51.122;6.840;2023-07-13T07:24:52;8.43;;;3.97;;
6019;SDS011;3038;51.122;6.840;2023-07-13T07:27:18;6.43;;;4.10;;
6019;SDS011;3038;51.122;6.840;2023-07-13T07:29:44;7.07;;;4.00;;
6019;SDS011;3038;51.122;6.840;2023-07-13T07:32:09;7.57;;;4.50;;
6019;SDS011;3038;51.122;6.840;2023-07-13T07:34:35;8.80;;;4.23;;
6019;SDS011;3038;51.122;6.840;2023-07-13T07:37:00;9.70;;;4.00;;
6019;SDS011;3038;51.122;6.840;2023-07-13T07:39:26;5.23;;;4.50;;
6019;SDS011;3038;51.122;6.840;2023-07-13T07:41:52;6.40;;;4.33;;
6019;SDS011;3038;51.122;6.840;2023-07-13T07:44:17;6.80;;;4.07;;
6019;SDS011;3038;51.122;6.840;2023-07-13T07:46:43;7.37;;;4.53;;
6019;SDS011;3038;51.122;6.840;2023-07-13T07:49:08;6.10;;;4.33;;
6019;SDS011;3038;51.122;6.840;2023-07-13T07:51:34;5.10;;;4.03;;
6019;SDS011;3038;51.122;6.840;2023-07-13T07:53:59;8.90;;;3.83;;
6019;SDS011;3038;51.122;6.840;2023-07-13T07:56:24;7.80;;;4.43;;
6019;SDS011;3038;51.122;6.840;2023-07-13T07:58:50;8.33;;;4.20;;
6019;SDS011;3038;51.122;6.840;2023-07-13T08:01:15;8.67;;;4.57;;
6019;SDS011;3038;51.122;6.840;2023-07-13T08:03:41;6.13;;;3.50;;
6019;SDS011;3038;51.122;6.840;2023-07-13T08:06:06;9.33;;;5.13;;
6019;SDS011;3038;51.122;6.840;2023-07-13T08:08:32;7.20;;;5.07;;
6019;SDS011;3038;51.122;6.840;2023-07-13T08:10:57;8.70;;;6.60;;
6019;SDS011;3038;51.122;6.840;2023-07-13T08:13:22;7.70;;;3.97;;
6019;SDS011;3038;51.122;6.840;2023-07-13T08:15:48;9.50;;;4.10;;
6019;SDS011;3038;51.122;6.840;2023-07-13T08:18:14;7.17;;;4.20;;
6019;SDS011;3038;51.122;6.840;2023-07-13T08:20:40;6.47;;;4.60;;
6019;SDS011;3038;51.122;6.840;2023-07-13T08:23:06;5.80;;;4.80;;
6019;SDS011;3038;51.122;6.840;2023-07-13T08:25:32;9.20;;;4.93;;
6019;SDS011;3038;51.122;6.840;2023-07-13T08:27:57;8.90;;;4.17;;
6019;SDS011;3038;51.122;6.840;2023-07-13T08:30:23;6.63;;;3.97;;
6019;SDS011;3038;51.122;6.840;2023-07-13T08:32:48;10.47;;;4.20;;
6019;SDS011;3038;51.122;6.840;2023-07-13T08:35:14;5.77;;;4.23;;
6019;SDS011;3038;51.122;6.840;2023-07-13T08:37:42;6.33;;;4.30;;
6019;SDS011;3038;51.122;6.840;2023-07-13T08:40:11;11.70;;;4.40;;
6019;SDS011;3038;51.122;6.840;2023-07-13T08:42:46;8.00;;;4.57;;
6019;SDS011;3038;51.122;6.840;2023-07-13T08:45:23;8.80;;;4.33;;
6019;SDS011;3038;51.122;6.840;2023-07-13T08:47:56;5.97;;;4.30;;
6019;SDS011;3038;51.122;6.840;2023-07-13T08:50:28;6.23;;;4.33;;
6019;SDS011;3038;51.122;6.840;2023-07-13T08:53:00;7.77;;;4.37;;
6019;SDS011;3038;51.122;6.840;2023-07-13T08:55:33;5.70;;;4.20;;
6019;SDS011;3038;51.122;6.840;2023-07-13T08:58:05;6.93;;;3.93;;
6019;SDS011;3038;51.122;6.840;2023-07-13T09:00:34;4.70;;;3.60;;
6019;SDS011;3038;51.122;6.840;2023-07-13T09:03:12;6.57;;;3.70;;
6019;SDS011;3038;51.122;6.840;2023-07-13T09:05:56;6.90;;;3.80;;
6019;SDS011;3038;51.122;6.840;2023-07-13T09:16:55;6.67;;;3.60;;
6019;SDS011;3038;51.122;6.840;2023-07-13T09:19:23;5.87;;;3.60;;
6019;SDS011;3038;51.122;6.840;2023-07-13T09:21:54;7.43;;;4.17;;
6019;SDS011;3038;51.122;6.840;2023-07-13T09:24:27;5.80;;;3.50;;
6019;SDS011;3038;51.122;6.840;2023-07-13T09:27:00;4.63;;;3.53;;
6019;SDS011;3038;51.122;6.840;2023-07-13T09:29:30;5.90;;;3.20;;
6019;SDS011;3038;51.122;6.840;2023-07-13T09:32:01;6.17;;;3.60;;
6019;SDS011;3038;51.122;6.840;2023-07-13T09:34:31;4.90;;;3.70;;
6019;SDS011;3038;51.122;6.840;2023-07-13T09:36:58;7.43;;;3.33;;
6019;SDS011;3038;51.122;6.840;2023-07-13T09:39:31;4.73;;;3.70;;
6019;SDS011;3038;51.122;6.840;2023-07-13T09:44:44;7.37;;;3.63;;
6019;SDS011;3038;51.122;6.840;2023-07-13T09:47:20;6.80;;;3.10;;
6019;SDS011;3038;51.122;6.840;2023-07-13T09:49:55;4.10;;;3.23;;
6019;SDS011;3038;51.122;6.840;2023-07-13T09:52:23;5.20;;;3.33;;
6019;SDS011;3038;51.122;6.840;2023-07-13T09:54:49;7.17;;;3.83;;
6019;SDS011;3038;51.122;6.840;2023-07-13T09:57:19;4.50;;;3.27;;
6019;SDS011;3038;51.122;6.840;2023-07-13T09:59:49;6.83;;;3.50;;
6019;SDS011;3038;51.122;6.840;2023-07-13T10:02:30;8.30;;;4.33;;
6019;SDS011;3038;51.122;6.840;2023-07-13T10:07:42;6.47;;;3.70;;
6019;SDS011;3038;51.122;6.840;2023-07-13T10:10:16;6.80;;;4.50;;
6019;SDS011;3038;51.122;6.840;2023-07-13T10:12:44;4.33;;;3.37;;
6019;SDS011;3038;51.122;6.840;2023-07-13T10:15:14;7.20;;;4.10;;
6019;SDS011;3038;51.122;6.840;2023-07-13T10:17:41;5.10;;;3.80;;
6019;SDS011;3038;51.122;6.840;2023-07-13T10:20:09;6.67;;;3.40;;
6019;SDS011;3038;51.122;6.840;2023-07-13T10:25:24;4.83;;;3.17;;
6019;SDS011;3038;51.122;6.840;2023-07-13T10:27:56;4.30;;;3.27;;
6019;SDS011;3038;51.122;6.840;2023-07-13T10:30:28;9.00;;;3.57;;
6019;SDS011;3038;51.122;6.840;2023-07-13T10:32:58;4.00;;;3.60;;
6019;SDS011;3038;51.122;6.840;2023-07-13T10:35:26;4.87;;;3.00;;
6019;SDS011;3038;51.122;6.840;2023-07-13T10:37:58;6.67;;;3.27;;
6019;SDS011;3038;51.122;6.840;2023-07-13T10:40:39;6.63;;;3.80;;
6019;SDS011;3038;51.122;6.840;2023-07-13T10:46:11;5.57;;;3.33;;
6019;SDS011;3038;51.122;6.840;2023-07-13T10:48:40;7.90;;;3.40;;
6019;SDS011;3038;51.122;6.840;2023-07-13T10:51:10;6.40;;;3.60;;
6019;SDS011;3038;51.122;6.840;2023-07-13T10:53:38;4.97;;;3.50;;
6019;SDS011;3038;51.122;6.840;2023-07-13T10:58:41;5.50;;;3.20;;
6019;SDS011;3038;51.122;6.840;2023-07-13T11:17:23;7.50;;;3.63;;
6019;SDS011;3038;51.122;6.840;2023-07-13T11:19:54;8.50;;;3.70;;
6019;SDS011;3038;51.122;6.840;2023-07-13T11:22:41;3.93;;;3.40;;
6019;SDS011;3038;51.122;6.840;2023-07-13T11:25:29;5.67;;;3.53;;
6019;SDS011;3038;51.122;6.840;2023-07-13T11:28:06;8.03;;;3.87;;
6019;SDS011;3038;51.122;6.840;2023-07-13T11:30:36;7.03;;;3.57;;
6019;SDS011;3038;51.122;6.840;2023-07-13T11:35:33;5.50;;;3.30;;
6019;SDS011;3038;51.122;6.840;2023-07-13T11:38:03;3.90;;;3.27;;
6019;SDS011;3038;51.122;6.840;2023-07-13T11:40:41;6.40;;;3.83;;
6019;SDS011;3038;51.122;6.840;2023-07-13T11:43:11;6.93;;;2.70;;
6019;SDS011;3038;51.122;6.840;2023-07-13T11:45:38;4.47;;;3.07;;
6019;SDS011;3038;51.122;6.840;2023-07-13T11:48:04;8.60;;;3.33;;
6019;SDS011;3038;51.122;6.840;2023-07-13T11:50:29;4.63;;;3.00;;
6019;SDS011;3038;51.122;6.840;2023-07-13T11:52:57;4.07;;;2.60;;
6019;SDS011;3038;51.122;6.840;2023-07-13T11:55:24;5.70;;;3.07;;
6019;SDS011;3038;51.122;6.840;2023-07-13T11:57:59;6.97;;;2.80;;
6019;SDS011;3038;51.122;6.840;2023-07-13T12:00:28;4.73;;;2.70;;
6019;SDS011;3038;51.122;6.840;2023-07-13T12:02:57;4.30;;;2.90;;
6019;SDS011;3038;51.122;6.840;2023-07-13T12:05:25;4.50;;;2.90;;
6019;SDS011;3038;51.122;6.840;2023-07-13T12:07:51;6.40;;;3.27;;
6019;SDS011;3038;51.122;6.840;2023-07-13T12:12:54;3.37;;;2.30;;
6019;SDS011;3038;51.122;6.840;2023-07-13T12:15:21;3.83;;;2.60;;
6019;SDS011;3038;51.122;6.840;2023-07-13T12:17:47;5.87;;;3.30;;
6019;SDS011;3038;51.122;6.840;2023-07-13T12:20:20;4.73;;;2.50;;
6019;SDS011;3038;51.122;6.840;2023-07-13T12:22:49;3.97;;;2.30;;
6019;SDS011;3038;51.122;6.840;2023-07-13T12:25:15;4.63;;;2.80;;
6019;SDS011;3038;51.122;6.840;2023-07-13T12:27:42;5.90;;;2.67;;
6019;SDS011;3038;51.122;6.840;2023-07-13T12:33:01;5.63;;;2.20;;
6019;SDS011;3038;51.122;6.840;2023-07-13T12:35:39;4.17;;;2.63;;
6019;SDS011;3038;51.122;6.840;2023-07-13T12:38:10;4.43;;;2.70;;
6019;SDS011;3038;51.122;6.840;2023-07-13T12:40:36;5.50;;;3.50;;
6019;SDS011;3038;51.122;6.840;2023-07-13T12:43:03;6.60;;;2.40;;
6019;SDS011;3038;51.122;6.840;2023-07-13T12:45:31;4.70;;;2.67;;
6019;SDS011;3038;51.122;6.840;2023-07-13T12:47:59;2.97;;;2.40;;
6019;SDS011;3038;51.122;6.840;2023-07-13T12:50:37;5.30;;;2.83;;
6019;SDS011;3038;51.122;6.840;2023-07-13T12:53:11;5.90;;;2.90;;
6019;SDS011;3038;51.122;6.840;2023-07-13T12:55:43;4.80;;;2.67;;
6019;SDS011;3038;51.122;6.840;2023-07-13T12:58:22;3.80;;;2.67;;
6019;SDS011;3038;51.122;6.840;2023-07-13T13:00:50;3.83;;;2.20;;
6019;SDS011;3038;51.122;6.840;2023-07-13T13:05:48;6.57;;;2.50;;
6019;SDS011;3038;51.122;6.840;2023-07-13T13:08:14;3.00;;;2.10;;
6019;SDS011;3038;51.122;6.840;2023-07-13T13:10:40;2.63;;;2.20;;
6019;SDS011;3038;51.122;6.840;2023-07-13T13:13:05;3.00;;;2.00;;
6019;SDS011;3038;51.122;6.840;2023-07-13T13:15:31;3.67;;;2.07;;
6019;SDS011;3038;51.122;6.840;2023-07-13T13:17:57;4.10;;;2.17;;
6019;SDS011;3038;51.122;6.840;2023-07-13T13:20:25;6.10;;;2.47;;
6019;SDS011;3038;51.122;6.840;2023-07-13T13:22:53;4.50;;;2.80;;
6019;SDS011;3038;51.122;6.840;2023-07-13T13:25:18;4.00;;;2.10;;
6019;SDS011;3038;51.122;6.840;2023-07-13T13:27:44;3.90;;;2.87;;
6019;SDS011;3038;51.122;6.840;2023-07-13T13:30:11;5.30;;;2.40;;
6019;SDS011;3038;51.122;6.840;2023-07-13T13:32:38;2.63;;;2.27;;
6019;SDS011;3038;51.122;6.840;2023-07-13T13:35:15;5.00;;;2.30;;
6019;SDS011;3038;51.122;6.840;2023-07-13T13:37:42;5.23;;;2.20;;
6019;SDS011;3038;51.122;6.840;2023-07-13T13:40:18;4.17;;;2.30;;
6019;SDS011;3038;51.122;6.840;2023-07-13T13:42:48;8.30;;;2.27;;
6019;SDS011;3038;51.122;6.840;2023-07-13T13:45:13;5.50;;;2.57;;
6019;SDS011;3038;51.122;6.840;2023-07-13T13:47:41;4.30;;;2.67;;
6019;SDS011;3038;51.122;6.840;2023-07-13T13:50:13;3.43;;;2.20;;
6019;SDS011;3038;51.122;6.840;2023-07-13T13:52:41;3.77;;;2.17;;
6019;SDS011;3038;51.122;6.840;2023-07-13T13:55:20;4.63;;;2.40;;
6019;SDS011;3038;51.122;6.840;2023-07-13T13:57:49;3.97;;;2.20;;
6019;SDS011;3038;51.122;6.840;2023-07-13T14:00:15;4.23;;;2.60;;
6019;SDS011;3038;51.122;6.840;2023-07-13T14:02:43;3.80;;;2.53;;
6019;SDS011;3038;51.122;6.840;2023-07-13T14:05:16;4.87;;;2.33;;
6019;SDS011;3038;51.122;6.840;2023-07-13T14:07:53;2.63;;;2.10;;
6019;SDS011;3038;51.122;6.840;2023-07-13T14:10:20;5.03;;;2.57;;
6019;SDS011;3038;51.122;6.840;2023-07-13T14:12:46;6.47;;;2.63;;
6019;SDS011;3038;51.122;6.840;2023-07-13T14:17:49;4.80;;;2.57;;
6019;SDS011;3038;51.122;6.840;2023-07-13T14:20:15;3.60;;;2.00;;
6019;SDS011;3038;51.122;6.840;2023-07-13T14:22:41;5.40;;;2.40;;
6019;SDS011;3038;51.122;6.840;2023-07-13T14:25:10;4.47;;;2.60;;
6019;SDS011;3038;51.122;6.840;2023-07-13T14:27:37;8.50;;;2.40;;
6019;SDS011;3038;51.122;6.840;2023-07-13T14:30:13;4.17;;;2.70;;
6019;SDS011;3038;51.122;6.840;2023-07-13T14:32:39;7.60;;;2.50;;
6019;SDS011;3038;51.122;6.840;2023-07-13T14:35:05;10.53;;;2.67;;
6019;SDS011;3038;51.122;6.840;2023-07-13T14:37:31;5.53;;;2.50;;
6019;SDS011;3038;51.122;6.840;2023-07-13T14:39:56;9.00;;;2.60;;
6019;SDS011;3038;51.122;6.840;2023-07-13T14:42:22;3.30;;;2.33;;
6019;SDS011;3038;51.122;6.840;2023-07-13T14:44:48;6.63;;;2.37;;
6019;SDS011;3038;51.122;6.840;2023-07-13T14:47:14;4.40;;;2.60;;
6019;SDS011;3038;51.122;6.840;2023-07-13T14:49:40;4.73;;;2.13;;
6019;SDS011;3038;51.122;6.840;2023-07-13T14:52:12;5.57;;;3.10;;
6019;SDS011;3038;51.122;6.840;2023-07-13T14:54:43;2.97;;;2.10;;
6019;SDS011;3038;51.122;6.840;2023-07-13T14:57:11;5.37;;;2.60;;
6019;SDS011;3038;51.122;6.840;2023-07-13T14:59:37;6.33;;;2.43;;
6019;SDS011;3038;51.122;6.840;2023-07-13T15:02:09;3.83;;;2.80;;
6019;SDS011;3038;51.122;6.840;2023-07-13T15:04:40;4.23;;;2.60;;
6019;SDS011;3038;51.122;6.840;2023-07-13T15:07:07;5.63;;;2.60;;
6019;SDS011;3038;51.122;6.840;2023-07-13T15:09:35;4.80;;;3.20;;
6019;SDS011;3038;51.122;6.840;2023-07-13T15:12:00;3.53;;;2.73;;
6019;SDS011;3038;51.122;6.840;2023-07-13T15:14:26;6.50;;;2.87;;
6019;SDS011;3038;51.122;6.840;2023-07-13T15:16:53;4.40;;;2.87;;
6019;SDS011;3038;51.122;6.840;2023-07-13T15:19:20;5.70;;;2.80;;
6019;SDS011;3038;51.122;6.840;2023-07-13T15:21:48;4.10;;;3.10;;
6019;SDS011;3038;51.122;6.840;2023-07-13T15:24:15;4.37;;;2.97;;
6019;SDS011;3038;51.122;6.840;2023-07-13T15:26:41;4.83;;;3.07;;
6019;SDS011;3038;51.122;6.840;2023-07-13T15:29:10;6.70;;;3.73;;
6019;SDS011;3038;51.122;6.840;2023-07-13T15:31:35;4.97;;;3.50;;
6019;SDS011;3038;51.122;6.840;2023-07-13T15:34:03;4.13;;;3.10;;
6019;SDS011;3038;51.122;6.840;2023-07-13T15:36:34;5.40;;;2.73;;
6019;SDS011;3038;51.122;6.840;2023-07-13T15:39:00;5.33;;;2.97;;
6019;SDS011;3038;51.122;6.840;2023-07-13T15:41:27;3.13;;;2.83;;
6019;SDS011;3038;51.122;6.840;2023-07-13T15:43:54;4.63;;;3.03;;
6019;SDS011;3038;51.122;6.840;2023-07-13T15:46:23;4.10;;;3.27;;
6019;SDS011;3038;51.122;6.840;2023-07-13T15:48:50;7.00;;;3.97;;
6019;SDS011;3038;51.122;6.840;2023-07-13T15:51:27;5.10;;;3.40;;
6019;SDS011;3038;51.122;6.840;2023-07-13T15:53:59;4.17;;;3.33;;
6019;SDS011;3038;51.122;6.840;2023-07-13T15:56:31;3.83;;;2.63;;
6019;SDS011;3038;51.122;6.840;2023-07-13T15:59:00;4.90;;;3.40;;
6019;SDS011;3038;51.122;6.840;2023-07-13T16:01:26;8.23;;;3.90;;
6019;SDS011;3038;51.122;6.840;2023-07-13T16:03:51;4.37;;;3.53;;
6019;SDS011;3038;51.122;6.840;2023-07-13T16:06:25;5.17;;;3.63;;
6019;SDS011;3038;51.122;6.840;2023-07-13T16:08:56;5.50;;;3.73;;
6019;SDS011;3038;51.122;6.840;2023-07-13T16:11:23;7.47;;;3.90;;
6019;SDS011;3038;51.122;6.840;2023-07-13T16:13:51;4.87;;;3.60;;